createdAt,value
2022-10-28T00:09:36.292Z,24.17
2022-10-28T00:14:37.336Z,25.83
2022-10-28T00:19:39.444Z,27.42
2022-10-28T00:24:40.212Z,26.33
2022-10-28T00:29:41.008Z,29.42
2022-10-28T00:34:43.208Z,28.08
2022-10-28T00:39:43.976Z,29.00
2022-10-28T00:44:54.260Z,26.95
2022-10-28T00:49:59.793Z,29.40
2022-10-28T00:55:02.691Z,22.85
2022-10-28T01:00:07.371Z,24.45
2022-10-28T01:05:11.905Z,27.35
2022-10-28T01:10:14.851Z,24.70
2022-10-28T01:15:23.113Z,26.10
2022-10-28T01:20:58.962Z,23.67
2022-10-28T01:26:13.059Z,25.60
2022-10-28T01:31:31.219Z,21.60
2022-10-28T01:36:39.068Z,24.65
2022-10-28T01:41:48.808Z,26.98
2022-10-28T01:46:58.288Z,22.25
2022-10-28T01:52:04.848Z,24.60
2022-10-28T01:57:06.921Z,24.08
2022-10-28T02:02:09.054Z,27.08
2022-10-28T02:07:09.878Z,19.58
2022-10-28T02:12:21.237Z,27.80
2022-10-28T02:17:32.811Z,28.85
2022-10-28T02:22:42.280Z,25.83
2022-10-28T02:27:50.317Z,32.90
2022-10-28T02:32:56.994Z,26.83
2022-10-28T02:38:01.103Z,25.77
2022-10-28T02:43:05.903Z,24.38
2022-10-28T02:48:11.540Z,24.48
2022-10-28T02:53:16.617Z,28.05
2022-10-28T02:58:17.758Z,27.08
2022-10-28T03:03:20.125Z,25.42
2022-10-28T03:08:20.905Z,32.05
2022-10-28T03:13:21.692Z,30.67
2022-10-28T03:18:23.849Z,35.08
2022-10-28T03:23:24.597Z,28.92
2022-10-28T03:28:25.475Z,31.13
2022-10-28T03:33:27.655Z,32.08
2022-10-28T03:38:29.461Z,32.05
2022-10-28T03:43:30.228Z,32.70
2022-10-28T03:48:32.351Z,37.03
2022-10-28T03:53:33.204Z,32.75
2022-10-28T03:58:37.439Z,30.45
2022-10-28T04:03:42.314Z,30.60
2022-10-28T04:08:43.106Z,32.65
2022-10-28T04:13:43.947Z,34.20
2022-10-28T04:18:46.076Z,34.05
2022-10-28T04:23:46.883Z,34.22
2022-10-28T04:28:47.633Z,36.53
2022-10-28T04:33:49.775Z,36.13
2022-10-28T04:38:51.934Z,38.28
2022-10-28T04:43:53.434Z,35.13
2022-10-28T04:48:55.576Z,38.63
2022-10-28T04:53:56.388Z,38.65
2022-10-28T04:58:57.208Z,35.35
2022-10-28T05:03:59.329Z,35.63
2022-10-28T05:09:00.118Z,34.38
2022-10-28T05:14:00.882Z,40.63
2022-10-28T05:19:03.153Z,36.80
2022-10-28T05:24:03.923Z,33.97
2022-10-28T05:29:04.724Z,34.70
2022-10-28T05:34:06.889Z,36.92
2022-10-28T05:39:07.712Z,35.80
2022-10-28T05:44:08.567Z,38.00
2022-10-28T05:49:10.688Z,38.42
2022-10-28T05:54:11.502Z,34.60
2022-10-28T05:59:12.244Z,37.50
2022-10-28T06:04:14.425Z,29.35
2022-10-28T06:09:15.369Z,32.72
2022-10-28T06:14:14.615Z,31.50
2022-10-28T06:19:16.837Z,34.35
2022-10-28T06:24:17.661Z,29.63
2022-10-28T06:29:19.025Z,31.23
2022-10-28T06:34:21.244Z,30.83
2022-10-28T06:39:22.231Z,31.33
2022-10-28T06:44:23.265Z,26.90
2022-10-28T06:49:27.044Z,25.90
2022-10-28T06:54:27.831Z,27.67
2022-10-28T06:59:28.636Z,22.25
2022-10-28T07:04:30.877Z,29.58
2022-10-28T07:09:31.780Z,28.17
2022-10-28T07:14:34.808Z,25.00
2022-10-28T07:19:37.024Z,26.17
2022-10-28T07:24:37.826Z,20.52
2022-10-28T07:29:38.632Z,20.00
2022-10-28T07:34:40.822Z,21.52
2022-10-28T07:39:41.619Z,22.70
2022-10-28T07:44:42.504Z,19.38
2022-10-28T07:49:45.005Z,23.80
2022-10-28T07:54:45.766Z,19.83
2022-10-28T07:59:46.615Z,18.70
2022-10-28T08:04:48.869Z,21.98
2022-10-28T08:09:49.690Z,20.35
2022-10-28T08:14:50.569Z,16.95
2022-10-28T08:19:52.692Z,15.20
2022-10-28T08:24:53.481Z,28.00
2022-10-28T08:29:54.413Z,19.80
2022-10-28T08:34:56.585Z,15.18
2022-10-28T08:39:57.432Z,18.48
2022-10-28T08:45:20.124Z,15.65
2022-10-28T08:50:25.746Z,14.18
2022-10-28T08:55:30.756Z,14.57
2022-10-28T09:00:34.489Z,17.02
2022-10-28T09:05:36.962Z,17.45
2022-10-28T09:10:54.308Z,22.95
2022-10-28T09:16:09.335Z,14.73
2022-10-28T09:21:20.079Z,16.60
2022-10-28T09:26:33.026Z,14.55
2022-10-28T09:31:37.575Z,13.80
2022-10-28T09:36:44.575Z,18.42
2022-10-28T09:41:47.695Z,16.08
2022-10-28T09:46:52.087Z,13.65
2022-10-28T09:52:00.841Z,16.63
2022-10-28T09:57:03.034Z,13.43
2022-10-28T10:02:05.478Z,13.40
2022-10-28T10:07:15.027Z,12.18
2022-10-28T10:12:16.078Z,12.90
2022-10-28T10:17:20.717Z,13.07
2022-10-28T10:22:30.926Z,14.43
2022-10-28T10:27:32.640Z,15.95
2022-10-28T10:32:34.643Z,11.88
2022-10-28T10:37:37.747Z,12.25
2022-10-28T10:42:46.581Z,14.05
2022-10-28T10:48:12.781Z,11.98
2022-10-28T10:53:24.751Z,15.40
2022-10-28T10:58:29.647Z,13.10
2022-10-28T11:03:34.913Z,12.90
2022-10-28T11:08:39.539Z,12.35
2022-10-28T11:13:45.098Z,11.90
2022-10-28T11:18:49.419Z,13.70
2022-10-28T11:24:04.674Z,13.82
2022-10-28T11:29:10.994Z,15.85
2022-10-28T11:34:27.080Z,15.05
2022-10-28T11:39:43.992Z,16.20
2022-10-28T11:44:51.591Z,15.35
2022-10-28T11:50:10.999Z,17.85
2022-10-28T11:55:23.890Z,18.10
2022-10-28T12:00:41.861Z,15.35
2022-10-28T12:05:47.110Z,16.00
2022-10-28T12:11:04.731Z,14.82
2022-10-28T12:16:10.540Z,17.08
2022-10-28T12:21:20.340Z,12.95
2022-10-28T12:26:28.875Z,16.30
2022-10-28T12:31:34.322Z,14.65
2022-10-28T12:36:39.581Z,15.38
2022-10-28T12:41:56.828Z,17.42
2022-10-28T12:47:06.089Z,16.35
2022-10-28T12:52:17.722Z,20.40
2022-10-28T12:57:23.837Z,14.25
2022-10-28T13:02:29.375Z,14.50
2022-10-28T13:07:46.433Z,16.10
2022-10-28T13:13:17.940Z,17.80
2022-10-28T13:18:55.604Z,19.27
2022-10-28T13:24:04.796Z,18.40
2022-10-28T13:29:09.364Z,17.98
2022-10-28T13:34:12.328Z,13.77
2022-10-28T13:39:25.599Z,15.30
2022-10-28T13:44:30.461Z,13.40
2022-10-28T13:49:32.002Z,16.05
2022-10-28T13:54:34.353Z,22.20
2022-10-28T13:59:53.194Z,14.25
2022-10-28T14:04:59.831Z,16.40
2022-10-28T14:10:20.903Z,18.45
2022-10-28T14:15:26.958Z,18.02
2022-10-28T14:20:34.748Z,15.95
2022-10-28T14:25:59.976Z,19.38
2022-10-28T14:31:38.822Z,16.85
2022-10-28T14:36:46.230Z,21.08
2022-10-28T14:42:05.697Z,14.52
2022-10-28T14:47:28.938Z,18.15
2022-10-28T14:52:32.079Z,21.33
2022-10-28T14:57:34.870Z,16.48
2022-10-28T15:02:38.977Z,21.23
2022-10-28T15:07:40.985Z,18.48
2022-10-28T15:12:44.210Z,14.40
2022-10-28T15:17:46.400Z,21.30
2022-10-28T15:22:47.414Z,16.25
2022-10-28T15:27:52.257Z,14.57
2022-10-28T15:32:56.141Z,15.98
2022-10-28T15:37:58.611Z,17.50
2022-10-28T15:43:00.999Z,18.50
2022-10-28T15:48:11.920Z,21.10
2022-10-28T15:53:34.152Z,21.58
2022-10-28T15:58:41.213Z,18.63
2022-10-28T16:03:45.811Z,18.38
2022-10-28T16:08:47.024Z,19.85
2022-10-28T16:13:50.890Z,18.85
2022-10-28T16:19:07.500Z,19.83
2022-10-28T16:24:11.236Z,16.52
2022-10-28T16:29:12.055Z,17.50
2022-10-28T16:34:16.936Z,17.40
2022-10-28T16:39:17.752Z,22.38
2022-10-28T16:44:19.488Z,15.65
2022-10-28T16:49:21.608Z,23.75
2022-10-28T16:54:22.445Z,20.02
2022-10-28T16:59:23.284Z,15.65
2022-10-28T17:04:25.508Z,17.88
2022-10-28T17:09:27.340Z,20.67
2022-10-28T17:14:28.169Z,19.92
2022-10-28T17:19:30.329Z,19.67
2022-10-28T17:24:31.175Z,19.42
2022-10-28T17:29:32.039Z,22.75
2022-10-28T17:34:34.233Z,19.60
2022-10-28T17:39:35.273Z,22.17
2022-10-28T17:44:36.649Z,19.00
2022-10-28T17:49:38.823Z,27.73
2022-10-28T17:54:39.634Z,16.90
2022-10-28T17:59:40.405Z,22.42
2022-10-28T18:04:43.110Z,19.02
2022-10-28T18:09:43.896Z,17.50
2022-10-28T18:14:44.696Z,18.48
2022-10-28T18:19:46.842Z,19.55
2022-10-28T18:24:47.592Z,17.15
2022-10-28T18:29:48.395Z,21.80
2022-10-28T18:34:50.575Z,17.50
2022-10-28T18:39:51.432Z,19.05
2022-10-28T18:44:58.341Z,19.27
2022-10-28T18:50:00.453Z,18.58
2022-10-28T18:55:01.243Z,17.73
2022-10-28T19:00:18.817Z,20.50
2022-10-28T19:05:21.684Z,14.70
2022-10-28T19:10:22.462Z,18.02
2022-10-28T19:15:23.301Z,16.30
2022-10-28T19:20:25.769Z,18.20
2022-10-28T19:25:26.517Z,20.05
2022-10-28T19:30:27.689Z,16.33
2022-10-28T19:35:30.052Z,22.73
2022-10-28T19:40:30.778Z,15.95
2022-10-28T19:45:31.581Z,19.00
2022-10-28T19:50:33.734Z,21.42
2022-10-28T19:55:34.550Z,21.95
2022-10-28T20:00:35.453Z,21.95
2022-10-28T20:05:37.680Z,20.27
2022-10-28T20:10:38.524Z,19.92
2022-10-28T20:15:39.301Z,23.67
2022-10-28T20:20:41.442Z,18.17
2022-10-28T20:25:50.469Z,19.15
2022-10-28T20:31:01.668Z,18.13
2022-10-28T20:36:04.890Z,23.33
2022-10-28T20:41:05.939Z,18.67
2022-10-28T20:46:07.189Z,19.92
2022-10-28T20:51:10.757Z,21.52
2022-10-28T20:56:17.479Z,26.27
2022-10-28T21:01:20.840Z,24.00
2022-10-28T21:06:23.147Z,24.35
2022-10-28T21:11:26.162Z,21.02
2022-10-28T21:16:28.513Z,16.85
2022-10-28T21:21:31.233Z,24.85
2022-10-28T21:26:32.010Z,23.38
2022-10-28T21:31:32.825Z,22.58
2022-10-28T21:36:34.965Z,25.35
2022-10-28T21:41:35.762Z,21.30
2022-10-28T21:46:36.561Z,22.88
2022-10-28T21:51:38.728Z,20.60
2022-10-28T21:56:39.479Z,20.05
2022-10-28T22:01:40.409Z,20.98
2022-10-28T22:06:42.733Z,23.05
2022-10-28T22:11:43.611Z,23.73
2022-10-28T22:16:44.481Z,20.33
2022-10-28T22:21:46.893Z,23.35
2022-10-28T22:26:47.683Z,25.48
2022-10-28T22:31:48.441Z,25.60
2022-10-28T22:36:50.571Z,24.00
2022-10-28T22:41:51.348Z,22.23
2022-10-28T22:46:52.165Z,24.13
2022-10-28T22:51:54.248Z,22.90
2022-10-28T22:56:55.092Z,27.15
2022-10-28T23:01:55.936Z,28.25
2022-10-28T23:06:58.200Z,31.15
2022-10-28T23:11:59.044Z,24.67
2022-10-28T23:16:59.823Z,29.13
2022-10-28T23:22:01.945Z,32.88
2022-10-28T23:27:02.767Z,30.23
2022-10-28T23:32:03.547Z,25.88
2022-10-28T23:37:05.666Z,28.48
2022-10-28T23:42:06.588Z,26.80
2022-10-28T23:47:07.404Z,29.65
2022-10-28T23:52:09.516Z,27.23
2022-10-28T23:57:10.261Z,26.27
